sensor_id;sensor_type;location;lat;lon;timestamp;temperature;humidity
9800;DHT22;4939;52.00085300;4.17406100;2023-04-23T00:00:20;9.60;99.90
9800;DHT22;4939;52.00085300;4.17406100;2023-04-23T00:02:47;9.50;99.90
9800;DHT22;4939;52.00085300;4.17406100;2023-04-23T00:05:16;9.60;99.90
9800;DHT22;4939;52.00085300;4.17406100;2023-04-23T00:07:41;9.60;99.90
9800;DHT22;4939;52.00085300;4.17406100;2023-04-23T00:10:08;9.70;99.90
9800;DHT22;4939;52.00085300;4.17406100;2023-04-23T00:12:34;9.70;99.90
9800;DHT22;4939;52.00085300;4.17406100;2023-04-23T00:15:00;9.70;99.90
9800;DHT22;4939;52.00085300;4.17406100;2023-04-23T00:19:53;9.70;99.90
9800;DHT22;4939;52.00085300;4.17406100;2023-04-23T00:22:19;9.70;99.90
9800;DHT22;4939;52.00085300;4.17406100;2023-04-23T00:24:45;9.70;99.90
9800;DHT22;4939;52.00085300;4.17406100;2023-04-23T00:27:11;9.60;99.90
9800;DHT22;4939;52.00085300;4.17406100;2023-04-23T00:29:37;9.60;99.90
9800;DHT22;4939;52.00085300;4.17406100;2023-04-23T00:32:03;9.60;99.90
9800;DHT22;4939;52.00085300;4.17406100;2023-04-23T00:36:55;9.60;99.90
9800;DHT22;4939;52.00085300;4.17406100;2023-04-23T00:41:47;9.70;99.90
9800;DHT22;4939;52.00085300;4.17406100;2023-04-23T00:44:13;9.60;99.90
9800;DHT22;4939;52.00085300;4.17406100;2023-04-23T00:46:39;9.70;99.90
9800;DHT22;4939;52.00085300;4.17406100;2023-04-23T00:49:06;9.70;99.90
9800;DHT22;4939;52.00085300;4.17406100;2023-04-23T00:51:32;9.70;99.90
9800;DHT22;4939;52.00085300;4.17406100;2023-04-23T00:53:58;9.80;99.90
9800;DHT22;4939;52.00085300;4.17406100;2023-04-23T00:56:26;9.80;99.90
9800;DHT22;4939;52.00085300;4.17406100;2023-04-23T00:58:52;9.90;99.90
9800;DHT22;4939;52.00085300;4.17406100;2023-04-23T01:01:19;9.90;99.90
9800;DHT22;4939;52.00085300;4.17406100;2023-04-23T01:03:47;9.90;99.90
9800;DHT22;4939;52.00085300;4.17406100;2023-04-23T01:06:15;10.00;99.90
9800;DHT22;4939;52.00085300;4.17406100;2023-04-23T01:08:42;10.00;99.90
9800;DHT22;4939;52.00085300;4.17406100;2023-04-23T01:11:08;10.00;99.90
9800;DHT22;4939;52.00085300;4.17406100;2023-04-23T01:13:34;10.10;99.90
9800;DHT22;4939;52.00085300;4.17406100;2023-04-23T01:16:00;10.10;99.90
9800;DHT22;4939;52.00085300;4.17406100;2023-04-23T01:18:27;10.00;99.90
9800;DHT22;4939;52.00085300;4.17406100;2023-04-23T01:23:20;10.20;99.90
9800;DHT22;4939;52.00085300;4.17406100;2023-04-23T01:25:47;10.20;99.90
9800;DHT22;4939;52.00085300;4.17406100;2023-04-23T01:28:13;10.20;99.90
9800;DHT22;4939;52.00085300;4.17406100;2023-04-23T01:30:41;10.20;99.90
9800;DHT22;4939;52.00085300;4.17406100;2023-04-23T01:33:08;10.20;99.90
9800;DHT22;4939;52.00085300;4.17406100;2023-04-23T01:35:35;10.20;99.90
9800;DHT22;4939;52.00085300;4.17406100;2023-04-23T01:38:02;10.20;99.90
9800;DHT22;4939;52.00085300;4.17406100;2023-04-23T01:40:28;10.20;99.90
9800;DHT22;4939;52.00085300;4.17406100;2023-04-23T01:42:55;10.30;99.90
9800;DHT22;4939;52.00085300;4.17406100;2023-04-23T01:45:21;10.20;99.90
9800;DHT22;4939;52.00085300;4.17406100;2023-04-23T01:50:14;10.30;99.90
9800;DHT22;4939;52.00085300;4.17406100;2023-04-23T01:52:40;10.30;99.90
9800;DHT22;4939;52.00085300;4.17406100;2023-04-23T01:55:07;10.40;99.90
9800;DHT22;4939;52.00085300;4.17406100;2023-04-23T01:57:34;10.30;99.90
9800;DHT22;4939;52.00085300;4.17406100;2023-04-23T02:02:36;10.30;99.90
9800;DHT22;4939;52.00085300;4.17406100;2023-04-23T02:05:03;10.30;99.90
9800;DHT22;4939;52.00085300;4.17406100;2023-04-23T02:07:33;10.30;99.90
9800;DHT22;4939;52.00085300;4.17406100;2023-04-23T02:10:00;10.20;99.90
9800;DHT22;4939;52.00085300;4.17406100;2023-04-23T02:12:26;10.20;99.90
9800;DHT22;4939;52.00085300;4.17406100;2023-04-23T02:14:52;10.10;99.90
9800;DHT22;4939;52.00085300;4.17406100;2023-04-23T02:17:19;10.00;99.90
9800;DHT22;4939;52.00085300;4.17406100;2023-04-23T02:19:46;10.00;99.90
9800;DHT22;4939;52.00085300;4.17406100;2023-04-23T02:22:11;10.00;99.90
9800;DHT22;4939;52.00085300;4.17406100;2023-04-23T02:24:37;10.00;99.90
9800;DHT22;4939;52.00085300;4.17406100;2023-04-23T02:27:03;9.90;99.90
9800;DHT22;4939;52.00085300;4.17406100;2023-04-23T02:29:29;9.90;99.90
9800;DHT22;4939;52.00085300;4.17406100;2023-04-23T02:31:55;9.80;99.90
9800;DHT22;4939;52.00085300;4.17406100;2023-04-23T02:34:21;9.80;99.90
9800;DHT22;4939;52.00085300;4.17406100;2023-04-23T02:36:47;9.80;99.90
9800;DHT22;4939;52.00085300;4.17406100;2023-04-23T02:41:38;9.70;99.90
9800;DHT22;4939;52.00085300;4.17406100;2023-04-23T02:44:04;9.70;99.90
9800;DHT22;4939;52.00085300;4.17406100;2023-04-23T02:46:30;9.70;99.90
9800;DHT22;4939;52.00085300;4.17406100;2023-04-23T02:48:56;9.80;99.90
9800;DHT22;4939;52.00085300;4.17406100;2023-04-23T02:51:25;9.80;99.90
9800;DHT22;4939;52.00085300;4.17406100;2023-04-23T02:53:54;9.90;99.90
9800;DHT22;4939;52.00085300;4.17406100;2023-04-23T02:56:19;9.90;99.90
9800;DHT22;4939;52.00085300;4.17406100;2023-04-23T02:58:45;9.90;99.90
9800;DHT22;4939;52.00085300;4.17406100;2023-04-23T03:01:13;9.90;99.90
9800;DHT22;4939;52.00085300;4.17406100;2023-04-23T03:03:39;9.90;99.90
9800;DHT22;4939;52.00085300;4.17406100;2023-04-23T03:06:06;10.00;99.90
9800;DHT22;4939;52.00085300;4.17406100;2023-04-23T03:08:32;9.90;99.90
9800;DHT22;4939;52.00085300;4.17406100;2023-04-23T03:10:58;10.00;99.90
9800;DHT22;4939;52.00085300;4.17406100;2023-04-23T03:13:24;10.10;99.90
9800;DHT22;4939;52.00085300;4.17406100;2023-04-23T03:15:50;10.10;99.90
9800;DHT22;4939;52.00085300;4.17406100;2023-04-23T03:18:16;10.10;99.90
9800;DHT22;4939;52.00085300;4.17406100;2023-04-23T03:20:42;10.10;99.90
9800;DHT22;4939;52.00085300;4.17406100;2023-04-23T03:23:08;10.20;99.90
9800;DHT22;4939;52.00085300;4.17406100;2023-04-23T03:25:34;10.10;99.90
9800;DHT22;4939;52.00085300;4.17406100;2023-04-23T03:28:00;10.10;99.90
9800;DHT22;4939;52.00085300;4.17406100;2023-04-23T03:30:26;10.10;99.90
9800;DHT22;4939;52.00085300;4.17406100;2023-04-23T03:32:54;10.10;99.90
9800;DHT22;4939;52.00085300;4.17406100;2023-04-23T03:35:21;10.10;99.90
9800;DHT22;4939;52.00085300;4.17406100;2023-04-23T03:37:47;10.10;99.90
9800;DHT22;4939;52.00085300;4.17406100;2023-04-23T03:40:12;10.10;99.90
9800;DHT22;4939;52.00085300;4.17406100;2023-04-23T03:42:38;10.10;99.90
9800;DHT22;4939;52.00085300;4.17406100;2023-04-23T03:45:04;10.10;99.90
9800;DHT22;4939;52.00085300;4.17406100;2023-04-23T03:47:30;10.20;99.90
9800;DHT22;4939;52.00085300;4.17406100;2023-04-23T03:49:56;10.20;99.90
9800;DHT22;4939;52.00085300;4.17406100;2023-04-23T03:52:22;10.20;99.90
9800;DHT22;4939;52.00085300;4.17406100;2023-04-23T03:54:47;10.20;99.90
9800;DHT22;4939;52.00085300;4.17406100;2023-04-23T03:57:13;10.20;99.90
9800;DHT22;4939;52.00085300;4.17406100;2023-04-23T03:59:39;10.30;99.90
9800;DHT22;4939;52.00085300;4.17406100;2023-04-23T04:04:31;10.20;99.90
9800;DHT22;4939;52.00085300;4.17406100;2023-04-23T04:06:58;10.30;99.90
9800;DHT22;4939;52.00085300;4.17406100;2023-04-23T04:09:25;10.30;99.90
9800;DHT22;4939;52.00085300;4.17406100;2023-04-23T04:11:52;10.30;99.90
9800;DHT22;4939;52.00085300;4.17406100;2023-04-23T04:14:19;10.30;99.90
9800;DHT22;4939;52.00085300;4.17406100;2023-04-23T04:16:45;10.30;99.90
9800;DHT22;4939;52.00085300;4.17406100;2023-04-23T04:19:10;10.30;99.90
9800;DHT22;4939;52.00085300;4.17406100;2023-04-23T04:21:36;10.30;99.90
9800;DHT22;4939;52.00085300;4.17406100;2023-04-23T04:24:02;10.30;99.90
9800;DHT22;4939;52.00085300;4.17406100;2023-04-23T04:26:29;10.30;99.90
9800;DHT22;4939;52.00085300;4.17406100;2023-04-23T04:29:00;10.30;99.90
9800;DHT22;4939;52.00085300;4.17406100;2023-04-23T04:31:26;10.40;99.90
9800;DHT22;4939;52.00085300;4.17406100;2023-04-23T04:33:53;10.30;99.90
9800;DHT22;4939;52.00085300;4.17406100;2023-04-23T04:36:20;10.30;99.90
9800;DHT22;4939;52.00085300;4.17406100;2023-04-23T04:38:46;10.40;99.90
9800;DHT22;4939;52.00085300;4.17406100;2023-04-23T04:41:12;10.30;99.90
9800;DHT22;4939;52.00085300;4.17406100;2023-04-23T04:43:39;10.30;99.90
9800;DHT22;4939;52.00085300;4.17406100;2023-04-23T04:46:05;10.20;99.90
9800;DHT22;4939;52.00085300;4.17406100;2023-04-23T04:48:31;10.30;99.90
9800;DHT22;4939;52.00085300;4.17406100;2023-04-23T04:50:58;10.20;99.90
9800;DHT22;4939;52.00085300;4.17406100;2023-04-23T04:53:23;10.20;99.90
9800;DHT22;4939;52.00085300;4.17406100;2023-04-23T04:55:49;10.10;99.90
9800;DHT22;4939;52.00085300;4.17406100;2023-04-23T04:58:16;10.10;99.90
9800;DHT22;4939;52.00085300;4.17406100;2023-04-23T05:00:42;10.10;99.90
9800;DHT22;4939;52.00085300;4.17406100;2023-04-23T05:03:07;10.10;99.90
9800;DHT22;4939;52.00085300;4.17406100;2023-04-23T05:05:33;10.10;99.90
9800;DHT22;4939;52.00085300;4.17406100;2023-04-23T05:07:59;10.10;99.90
9800;DHT22;4939;52.00085300;4.17406100;2023-04-23T05:10:28;10.10;99.90
9800;DHT22;4939;52.00085300;4.17406100;2023-04-23T05:12:58;10.20;99.90
9800;DHT22;4939;52.00085300;4.17406100;2023-04-23T05:15:25;10.10;99.90
9800;DHT22;4939;52.00085300;4.17406100;2023-04-23T05:17:51;10.20;99.90
9800;DHT22;4939;52.00085300;4.17406100;2023-04-23T05:20:19;10.20;99.90
9800;DHT22;4939;52.00085300;4.17406100;2023-04-23T05:22:45;10.20;99.90
9800;DHT22;4939;52.00085300;4.17406100;2023-04-23T05:25:11;10.20;99.90
9800;DHT22;4939;52.00085300;4.17406100;2023-04-23T05:27:38;10.20;99.90
9800;DHT22;4939;52.00085300;4.17406100;2023-04-23T05:30:05;10.20;99.90
9800;DHT22;4939;52.00085300;4.17406100;2023-04-23T05:32:32;10.30;99.90
9800;DHT22;4939;52.00085300;4.17406100;2023-04-23T05:34:59;10.30;99.90
9800;DHT22;4939;52.00085300;4.17406100;2023-04-23T05:37:25;10.30;99.90
9800;DHT22;4939;52.00085300;4.17406100;2023-04-23T05:39:50;10.30;99.90
9800;DHT22;4939;52.00085300;4.17406100;2023-04-23T05:42:16;10.30;99.90
9800;DHT22;4939;52.00085300;4.17406100;2023-04-23T05:44:42;10.40;99.90
9800;DHT22;4939;52.00085300;4.17406100;2023-04-23T05:47:08;10.40;99.90
9800;DHT22;4939;52.00085300;4.17406100;2023-04-23T05:49:35;10.50;99.90
9800;DHT22;4939;52.00085300;4.17406100;2023-04-23T05:52:01;10.50;99.90
9800;DHT22;4939;52.00085300;4.17406100;2023-04-23T05:54:29;10.60;99.90
9800;DHT22;4939;52.00085300;4.17406100;2023-04-23T05:56:55;10.70;99.90
9800;DHT22;4939;52.00085300;4.17406100;2023-04-23T05:59:21;10.60;99.90
9800;DHT22;4939;52.00085300;4.17406100;2023-04-23T06:01:47;10.80;99.90
9800;DHT22;4939;52.00085300;4.17406100;2023-04-23T06:04:14;10.80;99.90
9800;DHT22;4939;52.00085300;4.17406100;2023-04-23T06:06:41;10.90;99.90
9800;DHT22;4939;52.00085300;4.17406100;2023-04-23T06:09:07;10.90;99.90
9800;DHT22;4939;52.00085300;4.17406100;2023-04-23T06:11:33;11.00;99.90
9800;DHT22;4939;52.00085300;4.17406100;2023-04-23T06:14:01;11.00;99.90
9800;DHT22;4939;52.00085300;4.17406100;2023-04-23T06:16:27;11.00;99.90
9800;DHT22;4939;52.00085300;4.17406100;2023-04-23T06:18:53;11.10;99.90
9800;DHT22;4939;52.00085300;4.17406100;2023-04-23T06:21:21;11.10;99.90
9800;DHT22;4939;52.00085300;4.17406100;2023-04-23T06:23:47;11.20;99.90
9800;DHT22;4939;52.00085300;4.17406100;2023-04-23T06:26:13;11.20;99.90
9800;DHT22;4939;52.00085300;4.17406100;2023-04-23T06:28:41;11.30;99.90
9800;DHT22;4939;52.00085300;4.17406100;2023-04-23T06:31:07;11.40;99.90
9800;DHT22;4939;52.00085300;4.17406100;2023-04-23T06:33:33;11.50;99.90
9800;DHT22;4939;52.00085300;4.17406100;2023-04-23T06:36:00;11.60;99.90
9800;DHT22;4939;52.00085300;4.17406100;2023-04-23T06:38:26;11.70;99.90
9800;DHT22;4939;52.00085300;4.17406100;2023-04-23T06:40:52;11.90;99.90
9800;DHT22;4939;52.00085300;4.17406100;2023-04-23T06:43:18;11.90;99.90
9800;DHT22;4939;52.00085300;4.17406100;2023-04-23T06:45:43;11.90;99.90
9800;DHT22;4939;52.00085300;4.17406100;2023-04-23T06:48:09;11.90;99.90
9800;DHT22;4939;52.00085300;4.17406100;2023-04-23T06:50:35;12.00;99.90
9800;DHT22;4939;52.00085300;4.17406100;2023-04-23T06:53:01;12.00;99.90
9800;DHT22;4939;52.00085300;4.17406100;2023-04-23T06:55:26;12.00;99.90
9800;DHT22;4939;52.00085300;4.17406100;2023-04-23T06:57:54;12.10;99.90
9800;DHT22;4939;52.00085300;4.17406100;2023-04-23T07:00:21;12.10;99.90
9800;DHT22;4939;52.00085300;4.17406100;2023-04-23T07:02:47;12.20;99.90
9800;DHT22;4939;52.00085300;4.17406100;2023-04-23T07:05:13;12.20;99.90
9800;DHT22;4939;52.00085300;4.17406100;2023-04-23T07:07:39;12.30;99.90
9800;DHT22;4939;52.00085300;4.17406100;2023-04-23T07:10:09;12.50;99.90
9800;DHT22;4939;52.00085300;4.17406100;2023-04-23T07:12:36;12.50;99.90
9800;DHT22;4939;52.00085300;4.17406100;2023-04-23T07:15:03;12.60;99.90
9800;DHT22;4939;52.00085300;4.17406100;2023-04-23T07:17:28;12.70;99.90
9800;DHT22;4939;52.00085300;4.17406100;2023-04-23T07:19:55;12.90;99.90
9800;DHT22;4939;52.00085300;4.17406100;2023-04-23T07:22:22;12.90;99.90
9800;DHT22;4939;52.00085300;4.17406100;2023-04-23T07:24:48;13.00;99.90
9800;DHT22;4939;52.00085300;4.17406100;2023-04-23T07:27:13;13.00;99.90
9800;DHT22;4939;52.00085300;4.17406100;2023-04-23T07:29:39;12.90;99.90
9800;DHT22;4939;52.00085300;4.17406100;2023-04-23T07:32:05;13.10;99.90
9800;DHT22;4939;52.00085300;4.17406100;2023-04-23T07:34:31;13.10;99.90
9800;DHT22;4939;52.00085300;4.17406100;2023-04-23T07:36:56;13.10;99.90
9800;DHT22;4939;52.00085300;4.17406100;2023-04-23T07:39:22;13.20;99.90
9800;DHT22;4939;52.00085300;4.17406100;2023-04-23T07:41:48;13.20;99.90
9800;DHT22;4939;52.00085300;4.17406100;2023-04-23T07:44:13;13.10;99.90
9800;DHT22;4939;52.00085300;4.17406100;2023-04-23T07:46:39;13.00;99.90
9800;DHT22;4939;52.00085300;4.17406100;2023-04-23T07:49:05;13.00;99.90
9800;DHT22;4939;52.00085300;4.17406100;2023-04-23T07:51:32;13.20;99.90
9800;DHT22;4939;52.00085300;4.17406100;2023-04-23T07:53:57;13.30;99.90
9800;DHT22;4939;52.00085300;4.17406100;2023-04-23T07:56:23;13.40;99.90
9800;DHT22;4939;52.00085300;4.17406100;2023-04-23T07:58:50;13.60;99.90
9800;DHT22;4939;52.00085300;4.17406100;2023-04-23T08:01:18;13.60;99.90
9800;DHT22;4939;52.00085300;4.17406100;2023-04-23T08:03:44;13.70;99.90
9800;DHT22;4939;52.00085300;4.17406100;2023-04-23T08:06:10;13.70;99.90
9800;DHT22;4939;52.00085300;4.17406100;2023-04-23T08:08:37;13.80;99.90
9800;DHT22;4939;52.00085300;4.17406100;2023-04-23T08:11:06;13.90;99.90
9800;DHT22;4939;52.00085300;4.17406100;2023-04-23T08:13:32;13.90;99.90
9800;DHT22;4939;52.00085300;4.17406100;2023-04-23T08:15:58;14.00;99.90
9800;DHT22;4939;52.00085300;4.17406100;2023-04-23T08:18:24;14.10;99.90
9800;DHT22;4939;52.00085300;4.17406100;2023-04-23T08:20:50;14.20;99.90
9800;DHT22;4939;52.00085300;4.17406100;2023-04-23T08:23:16;14.40;99.90
9800;DHT22;4939;52.00085300;4.17406100;2023-04-23T08:25:42;14.60;99.90
9800;DHT22;4939;52.00085300;4.17406100;2023-04-23T08:28:07;14.50;99.90
9800;DHT22;4939;52.00085300;4.17406100;2023-04-23T08:30:33;14.50;99.90
9800;DHT22;4939;52.00085300;4.17406100;2023-04-23T08:32:59;14.60;99.90
9800;DHT22;4939;52.00085300;4.17406100;2023-04-23T08:35:24;14.60;99.90
9800;DHT22;4939;52.00085300;4.17406100;2023-04-23T08:37:50;14.50;99.90
9800;DHT22;4939;52.00085300;4.17406100;2023-04-23T08:40:16;14.50;99.90
9800;DHT22;4939;52.00085300;4.17406100;2023-04-23T08:42:48;14.70;99.90
9800;DHT22;4939;52.00085300;4.17406100;2023-04-23T08:45:14;14.80;99.90
9800;DHT22;4939;52.00085300;4.17406100;2023-04-23T08:47:40;14.70;99.90
9800;DHT22;4939;52.00085300;4.17406100;2023-04-23T08:50:16;14.60;99.90
9800;DHT22;4939;52.00085300;4.17406100;2023-04-23T08:52:48;14.60;99.90
9800;DHT22;4939;52.00085300;4.17406100;2023-04-23T08:55:15;14.70;99.90
9800;DHT22;4939;52.00085300;4.17406100;2023-04-23T08:57:46;14.80;99.90
9800;DHT22;4939;52.00085300;4.17406100;2023-04-23T09:00:13;14.70;99.90
9800;DHT22;4939;52.00085300;4.17406100;2023-04-23T09:02:41;14.70;99.90
9800;DHT22;4939;52.00085300;4.17406100;2023-04-23T09:05:07;14.70;99.90
9800;DHT22;4939;52.00085300;4.17406100;2023-04-23T09:07:34;14.70;99.90
9800;DHT22;4939;52.00085300;4.17406100;2023-04-23T09:10:01;15.00;99.90
9800;DHT22;4939;52.00085300;4.17406100;2023-04-23T09:12:27;15.20;99.90
9800;DHT22;4939;52.00085300;4.17406100;2023-04-23T09:14:53;15.00;99.90
9800;DHT22;4939;52.00085300;4.17406100;2023-04-23T09:17:20;15.20;99.90
9800;DHT22;4939;52.00085300;4.17406100;2023-04-23T09:19:48;15.40;99.90
9800;DHT22;4939;52.00085300;4.17406100;2023-04-23T09:22:14;15.60;99.90
9800;DHT22;4939;52.00085300;4.17406100;2023-04-23T09:24:41;15.80;99.90
9800;DHT22;4939;52.00085300;4.17406100;2023-04-23T09:27:07;16.00;99.90
9800;DHT22;4939;52.00085300;4.17406100;2023-04-23T09:29:33;16.30;99.90
9800;DHT22;4939;52.00085300;4.17406100;2023-04-23T09:32:07;16.40;99.90
9800;DHT22;4939;52.00085300;4.17406100;2023-04-23T09:34:35;16.50;99.90
9800;DHT22;4939;52.00085300;4.17406100;2023-04-23T09:37:03;16.60;99.90
9800;DHT22;4939;52.00085300;4.17406100;2023-04-23T09:39:29;16.70;99.90
9800;DHT22;4939;52.00085300;4.17406100;2023-04-23T09:42:02;16.90;99.90
9800;DHT22;4939;52.00085300;4.17406100;2023-04-23T09:44:31;16.90;99.90
9800;DHT22;4939;52.00085300;4.17406100;2023-04-23T09:47:05;16.80;99.90
9800;DHT22;4939;52.00085300;4.17406100;2023-04-23T09:49:44;16.70;99.90
9800;DHT22;4939;52.00085300;4.17406100;2023-04-23T09:52:11;16.90;99.90
9800;DHT22;4939;52.00085300;4.17406100;2023-04-23T09:54:36;16.90;99.90
9800;DHT22;4939;52.00085300;4.17406100;2023-04-23T09:57:04;16.70;99.90
9800;DHT22;4939;52.00085300;4.17406100;2023-04-23T09:59:33;16.50;99.90
9800;DHT22;4939;52.00085300;4.17406100;2023-04-23T10:02:02;16.70;99.90
9800;DHT22;4939;52.00085300;4.17406100;2023-04-23T10:04:28;16.60;99.90
9800;DHT22;4939;52.00085300;4.17406100;2023-04-23T10:06:55;16.50;99.90
9800;DHT22;4939;52.00085300;4.17406100;2023-04-23T10:09:21;16.60;99.90
9800;DHT22;4939;52.00085300;4.17406100;2023-04-23T10:11:53;16.60;99.90
9800;DHT22;4939;52.00085300;4.17406100;2023-04-23T10:14:20;16.50;99.90
9800;DHT22;4939;52.00085300;4.17406100;2023-04-23T10:16:46;16.60;99.90
9800;DHT22;4939;52.00085300;4.17406100;2023-04-23T10:19:16;16.50;99.90
9800;DHT22;4939;52.00085300;4.17406100;2023-04-23T10:21:43;16.50;99.90
9800;DHT22;4939;52.00085300;4.17406100;2023-04-23T10:24:12;16.40;99.90
9800;DHT22;4939;52.00085300;4.17406100;2023-04-23T10:26:41;16.30;99.90
9800;DHT22;4939;52.00085300;4.17406100;2023-04-23T10:29:13;16.20;99.90
9800;DHT22;4939;52.00085300;4.17406100;2023-04-23T10:31:41;16.20;99.90
9800;DHT22;4939;52.00085300;4.17406100;2023-04-23T10:34:09;16.30;99.90
9800;DHT22;4939;52.00085300;4.17406100;2023-04-23T10:36:36;16.50;99.90
9800;DHT22;4939;52.00085300;4.17406100;2023-04-23T10:39:02;16.90;99.90
9800;DHT22;4939;52.00085300;4.17406100;2023-04-23T10:41:37;16.50;99.90
9800;DHT22;4939;52.00085300;4.17406100;2023-04-23T10:44:04;16.40;99.90
9800;DHT22;4939;52.00085300;4.17406100;2023-04-23T10:46:31;16.30;99.90
9800;DHT22;4939;52.00085300;4.17406100;2023-04-23T10:49:09;16.40;99.90
9800;DHT22;4939;52.00085300;4.17406100;2023-04-23T10:51:36;16.40;99.90
9800;DHT22;4939;52.00085300;4.17406100;2023-04-23T10:54:06;16.40;99.90
9800;DHT22;4939;52.00085300;4.17406100;2023-04-23T10:56:32;16.50;99.90
9800;DHT22;4939;52.00085300;4.17406100;2023-04-23T10:58:58;16.70;99.90
9800;DHT22;4939;52.00085300;4.17406100;2023-04-23T11:01:27;16.70;99.90
9800;DHT22;4939;52.00085300;4.17406100;2023-04-23T11:03:55;16.50;99.90
9800;DHT22;4939;52.00085300;4.17406100;2023-04-23T11:06:49;16.50;99.90
9800;DHT22;4939;52.00085300;4.17406100;2023-04-23T11:09:28;16.40;99.90
9800;DHT22;4939;52.00085300;4.17406100;2023-04-23T11:11:55;16.30;99.90
9800;DHT22;4939;52.00085300;4.17406100;2023-04-23T11:14:44;16.30;99.90
9800;DHT22;4939;52.00085300;4.17406100;2023-04-23T11:17:20;16.30;99.90
9800;DHT22;4939;52.00085300;4.17406100;2023-04-23T11:20:12;16.60;99.90
9800;DHT22;4939;52.00085300;4.17406100;2023-04-23T11:22:42;16.70;99.90
9800;DHT22;4939;52.00085300;4.17406100;2023-04-23T11:25:13;16.60;99.90
9800;DHT22;4939;52.00085300;4.17406100;2023-04-23T11:27:43;16.50;99.90
9800;DHT22;4939;52.00085300;4.17406100;2023-04-23T11:30:13;16.70;99.90
9800;DHT22;4939;52.00085300;4.17406100;2023-04-23T11:32:49;16.80;99.90
9800;DHT22;4939;52.00085300;4.17406100;2023-04-23T11:35:17;16.90;99.90
9800;DHT22;4939;52.00085300;4.17406100;2023-04-23T11:37:44;17.00;99.90
9800;DHT22;4939;52.00085300;4.17406100;2023-04-23T11:40:11;17.10;99.90
9800;DHT22;4939;52.00085300;4.17406100;2023-04-23T11:42:53;17.40;99.90
9800;DHT22;4939;52.00085300;4.17406100;2023-04-23T11:45:22;17.40;99.90
9800;DHT22;4939;52.00085300;4.17406100;2023-04-23T11:47:49;17.20;99.90
9800;DHT22;4939;52.00085300;4.17406100;2023-04-23T11:50:41;17.10;99.90
9800;DHT22;4939;52.00085300;4.17406100;2023-04-23T11:53:09;17.40;99.90
9800;DHT22;4939;52.00085300;4.17406100;2023-04-23T11:55:36;17.40;99.90
9800;DHT22;4939;52.00085300;4.17406100;2023-04-23T11:58:02;17.30;99.90
9800;DHT22;4939;52.00085300;4.17406100;2023-04-23T12:00:28;17.40;99.90
9800;DHT22;4939;52.00085300;4.17406100;2023-04-23T12:02:56;17.40;99.90
9800;DHT22;4939;52.00085300;4.17406100;2023-04-23T12:05:30;17.30;99.90
9800;DHT22;4939;52.00085300;4.17406100;2023-04-23T12:08:17;17.30;99.90
9800;DHT22;4939;52.00085300;4.17406100;2023-04-23T12:10:53;17.00;99.90
9800;DHT22;4939;52.00085300;4.17406100;2023-04-23T12:13:22;17.00;99.90
9800;DHT22;4939;52.00085300;4.17406100;2023-04-23T12:15:52;17.00;99.90
9800;DHT22;4939;52.00085300;4.17406100;2023-04-23T12:18:33;16.80;99.90
9800;DHT22;4939;52.00085300;4.17406100;2023-04-23T12:21:08;16.80;99.90
9800;DHT22;4939;52.00085300;4.17406100;2023-04-23T12:23:35;16.60;99.90
9800;DHT22;4939;52.00085300;4.17406100;2023-04-23T12:26:02;16.50;99.90
9800;DHT22;4939;52.00085300;4.17406100;2023-04-23T12:28:28;16.20;99.90
9800;DHT22;4939;52.00085300;4.17406100;2023-04-23T12:30:59;16.20;99.90
9800;DHT22;4939;52.00085300;4.17406100;2023-04-23T12:33:29;16.10;99.90
9800;DHT22;4939;52.00085300;4.17406100;2023-04-23T12:35:55;16.00;99.90
9800;DHT22;4939;52.00085300;4.17406100;2023-04-23T12:38:28;14.90;99.90
9800;DHT22;4939;52.00085300;4.17406100;2023-04-23T12:40:58;14.10;99.90
9800;DHT22;4939;52.00085300;4.17406100;2023-04-23T12:43:25;14.00;99.90
9800;DHT22;4939;52.00085300;4.17406100;2023-04-23T12:45:52;13.20;99.90
9800;DHT22;4939;52.00085300;4.17406100;2023-04-23T12:48:18;13.00;99.90
9800;DHT22;4939;52.00085300;4.17406100;2023-04-23T12:50:45;13.00;99.90
9800;DHT22;4939;52.00085300;4.17406100;2023-04-23T12:53:11;13.10;99.90
9800;DHT22;4939;52.00085300;4.17406100;2023-04-23T12:55:37;13.20;99.90
9800;DHT22;4939;52.00085300;4.17406100;2023-04-23T12:58:04;13.20;99.90
9800;DHT22;4939;52.00085300;4.17406100;2023-04-23T13:00:30;13.40;99.90
9800;DHT22;4939;52.00085300;4.17406100;2023-04-23T13:02:56;13.40;99.90
9800;DHT22;4939;52.00085300;4.17406100;2023-04-23T13:05:22;13.50;99.90
9800;DHT22;4939;52.00085300;4.17406100;2023-04-23T13:07:48;13.50;99.90
9800;DHT22;4939;52.00085300;4.17406100;2023-04-23T13:10:14;13.70;99.90
9800;DHT22;4939;52.00085300;4.17406100;2023-04-23T13:12:40;14.00;99.90
9800;DHT22;4939;52.00085300;4.17406100;2023-04-23T13:15:07;14.10;99.90
9800;DHT22;4939;52.00085300;4.17406100;2023-04-23T13:17:35;14.20;99.90
9800;DHT22;4939;52.00085300;4.17406100;2023-04-23T13:20:01;14.20;99.90
9800;DHT22;4939;52.00085300;4.17406100;2023-04-23T13:22:26;14.10;99.90
9800;DHT22;4939;52.00085300;4.17406100;2023-04-23T13:24:56;14.10;99.90
9800;DHT22;4939;52.00085300;4.17406100;2023-04-23T13:27:27;14.10;99.90
9800;DHT22;4939;52.00085300;4.17406100;2023-04-23T13:29:53;14.20;99.90
9800;DHT22;4939;52.00085300;4.17406100;2023-04-23T13:32:19;14.10;99.90
9800;DHT22;4939;52.00085300;4.17406100;2023-04-23T13:34:45;14.30;99.90
9800;DHT22;4939;52.00085300;4.17406100;2023-04-23T13:37:10;14.30;99.90
9800;DHT22;4939;52.00085300;4.17406100;2023-04-23T13:39:37;14.40;99.90
9800;DHT22;4939;52.00085300;4.17406100;2023-04-23T13:42:03;14.50;99.90
9800;DHT22;4939;52.00085300;4.17406100;2023-04-23T13:44:32;14.40;99.90
9800;DHT22;4939;52.00085300;4.17406100;2023-04-23T13:46:58;14.50;99.90
9800;DHT22;4939;52.00085300;4.17406100;2023-04-23T13:49:27;14.50;99.90
9800;DHT22;4939;52.00085300;4.17406100;2023-04-23T13:51:53;14.50;99.90
9800;DHT22;4939;52.00085300;4.17406100;2023-04-23T13:54:23;14.50;99.90
9800;DHT22;4939;52.00085300;4.17406100;2023-04-23T13:56:49;14.50;99.90
9800;DHT22;4939;52.00085300;4.17406100;2023-04-23T13:59:14;14.50;99.90
9800;DHT22;4939;52.00085300;4.17406100;2023-04-23T14:01:40;14.20;99.90
9800;DHT22;4939;52.00085300;4.17406100;2023-04-23T14:04:06;14.10;99.90
9800;DHT22;4939;52.00085300;4.17406100;2023-04-23T14:06:31;14.20;99.90